Time;durP1;ratioP1;P1;durP2;ratioP2;P2;SDS_P1;SDS_P2;PMS_P1;PMS_P2;Temp;Humidity;BMP_temperature;BMP_pressure;BME280_temperature;BME280_humidity;BME280_pressure;Samples;Min_cycle;Max_cycle;Signal;HPM_P1;HPM_P2
2022/07/27 00:01:53;;;;;;;7.92;6.12;;;;;;;17.21;100.00;98246.41;1812566;79;21017;-74
2022/07/27 00:04:19;;;;;;;10.23;6.12;;;;;;;17.20;100.00;98245.30;1812394;79;21019;-74
2022/07/27 00:06:46;;;;;;;10.03;5.72;;;;;;;17.18;100.00;98240.63;1809545;79;21032;-74
2022/07/27 00:09:13;;;;;;;8.35;5.95;;;;;;;17.17;100.00;98239.78;1809391;79;21016;-74
2022/07/27 00:11:40;;;;;;;7.78;5.87;;;;;;;17.16;100.00;98233.25;1809491;79;21446;-74
2022/07/27 00:14:07;;;;;;;9.40;6.25;;;;;;;17.11;100.00;98229.09;1809359;79;21004;-74
2022/07/27 00:16:34;;;;;;;8.88;6.12;;;;;;;17.03;100.00;98224.38;1808919;79;21040;-74
2022/07/27 00:19:02;;;;;;;8.68;6.12;;;;;;;17.00;100.00;98224.89;1809285;79;21036;-74
2022/07/27 00:21:29;;;;;;;10.55;6.65;;;;;;;16.98;100.00;98227.58;1809609;79;21495;-74
2022/07/27 00:23:56;;;;;;;10.60;6.45;;;;;;;16.96;100.00;98229.20;1809325;79;20953;-74
2022/07/27 00:26:22;;;;;;;10.78;6.87;;;;;;;16.93;100.00;98221.54;1809518;79;21127;-74
2022/07/27 00:28:49;;;;;;;10.55;6.40;;;;;;;16.92;100.00;98217.70;1809201;79;20949;-74
2022/07/27 00:31:17;;;;;;;9.40;6.45;;;;;;;16.91;100.00;98205.12;1809185;79;21017;-74
2022/07/27 00:33:44;;;;;;;9.95;6.30;;;;;;;16.89;100.00;98206.73;1804513;79;21028;-74
2022/07/27 00:36:11;;;;;;;11.00;6.62;;;;;;;16.87;100.00;98202.92;1803327;79;21491;-74
2022/07/27 00:38:38;;;;;;;10.85;6.65;;;;;;;16.87;100.00;98202.08;1803533;79;21047;-74
2022/07/27 00:41:04;;;;;;;9.85;6.15;;;;;;;16.86;100.00;98164.41;1803487;79;21005;-74
2022/07/27 00:43:31;;;;;;;9.80;6.53;;;;;;;16.89;100.00;98163.06;1803462;79;21009;-74
2022/07/27 00:45:58;;;;;;;12.58;7.08;;;;;;;16.90;100.00;98157.90;1803362;79;21012;-74
2022/07/27 00:48:27;;;;;;;8.98;6.15;;;;;;;16.91;100.00;98150.00;1803346;79;21064;-74
2022/07/27 00:50:54;;;;;;;11.25;6.72;;;;;;;16.91;100.00;98150.52;1803491;79;21068;-75
2022/07/27 00:53:20;;;;;;;9.33;6.00;;;;;;;16.90;100.00;98138.79;1803596;79;21378;-74
2022/07/27 00:55:47;;;;;;;9.75;6.22;;;;;;;16.91;100.00;98143.70;1802963;79;20945;-74
2022/07/27 00:58:16;;;;;;;12.68;6.75;;;;;;;16.91;100.00;98136.36;1803400;79;21024;-74
2022/07/27 01:00:42;;;;;;;10.43;6.65;;;;;;;16.93;100.00;98128.73;1772545;79;21514;-74
2022/07/27 01:03:09;;;;;;;9.70;6.65;;;;;;;16.93;100.00;98116.45;1803653;79;21005;-74
2022/07/27 01:05:37;;;;;;;13.00;6.85;;;;;;;16.91;100.00;98109.06;1803522;79;21012;-74
2022/07/27 01:08:06;;;;;;;11.60;6.95;;;;;;;16.87;100.00;98101.09;1802533;79;21045;-74
2022/07/27 01:10:33;;;;;;;10.82;6.92;;;;;;;16.84;100.00;98101.08;1803600;79;20985;-74
2022/07/27 01:13:00;;;;;;;13.90;6.60;;;;;;;16.82;100.00;98102.38;1803655;79;21009;-74
2022/07/27 01:15:27;;;;;;;12.47;6.80;;;;;;;16.82;100.00;98095.55;1803544;79;21496;-74
2022/07/27 01:17:54;;;;;;;13.78;6.95;;;;;;;16.82;100.00;98090.09;1803293;79;21013;-74
2022/07/27 01:20:21;;;;;;;10.40;7.10;;;;;;;16.82;100.00;98093.66;1803464;79;21043;-73
2022/07/27 01:22:47;;;;;;;9.93;6.83;;;;;;;16.81;100.00;98074.27;1803484;79;20997;-74
2022/07/27 01:25:14;;;;;;;13.45;7.80;;;;;;;16.80;100.00;98066.33;1803429;79;20970;-74
2022/07/27 01:27:41;;;;;;;17.42;9.28;;;;;;;16.78;100.00;98056.22;1803537;79;21514;-74
2022/07/27 01:30:25;;;;;;;18.25;9.55;;;;;;;16.78;100.00;98059.77;1803390;79;21021;-74
2022/07/27 01:33:03;;;;;;;15.85;8.98;;;;;;;16.78;100.00;98043.94;1803396;79;21068;-74
2022/07/27 01:35:30;;;;;;;15.65;9.50;;;;;;;16.76;100.00;98037.38;1801654;79;20981;-74
2022/07/27 01:37:59;;;;;;;14.15;8.95;;;;;;;16.76;100.00;98036.56;1803381;79;21009;-74
2022/07/27 01:40:26;;;;;;;14.50;9.15;;;;;;;16.74;100.00;98025.08;1803340;79;21013;-74
2022/07/27 01:42:52;;;;;;;16.77;9.53;;;;;;;16.74;100.00;98026.45;1803445;79;21083;-74
2022/07/27 01:45:19;;;;;;;16.45;9.43;;;;;;;16.73;100.00;98030.25;1803340;79;20965;-74
2022/07/27 01:47:46;;;;;;;18.25;10.18;;;;;;;16.72;100.00;98026.70;1803552;79;20981;-74
2022/07/27 01:50:12;;;;;;;17.60;9.90;;;;;;;16.72;100.00;98024.53;1803539;79;20961;-74
2022/07/27 01:52:40;;;;;;;16.05;8.90;;;;;;;16.71;100.00;98019.59;1803428;79;21056;-74
2022/07/27 01:55:09;;;;;;;15.88;9.40;;;;;;;16.70;100.00;98012.50;1803630;79;21001;-74
2022/07/27 01:57:36;;;;;;;15.85;9.35;;;;;;;16.70;100.00;97990.13;1803538;79;21040;-74
2022/07/27 02:00:06;;;;;;;16.02;8.85;;;;;;;16.72;100.00;97982.23;1803427;79;21001;-74
2022/07/27 02:02:35;;;;;;;16.93;9.38;;;;;;;16.72;100.00;97965.86;1798726;79;21021;-75
2022/07/27 02:05:03;;;;;;;14.93;9.30;;;;;;;16.70;100.00;97952.47;1803242;79;21001;-74
2022/07/27 02:07:31;;;;;;;16.67;9.08;;;;;;;16.68;100.00;97958.73;1803130;79;21024;-74
2022/07/27 02:09:57;;;;;;;14.23;8.73;;;;;;;16.63;100.00;97945.87;1802941;79;20977;-75
2022/07/27 02:12:36;;;;;;;13.78;8.80;;;;;;;16.60;100.00;97947.75;1803451;79;20985;-74
2022/07/27 02:15:14;;;;;;;15.60;8.88;;;;;;;16.60;100.00;97945.56;1803570;79;20969;-74
2022/07/27 02:17:43;;;;;;;16.30;8.73;;;;;;;16.60;100.00;97942.29;1704576;84;21062;-75
2022/07/27 02:20:11;;;;;;;14.45;8.45;;;;;;;16.59;100.00;97931.11;1686856;85;21136;-74
2022/07/27 02:22:39;;;;;;;13.05;8.53;;;;;;;16.59;100.00;97931.11;1687873;85;21034;-74
2022/07/27 02:25:07;;;;;;;15.80;8.68;;;;;;;16.58;100.00;97925.36;1687992;85;21018;-75
2022/07/27 02:27:36;;;;;;;14.50;8.60;;;;;;;16.57;100.00;97925.07;1688125;85;21097;-74
2022/07/27 02:30:04;;;;;;;16.23;9.20;;;;;;;16.54;100.00;97924.25;1687658;85;21006;-75
2022/07/27 02:32:31;;;;;;;16.85;9.43;;;;;;;16.51;100.00;97924.77;1688304;85;21164;-74
2022/07/27 02:34:58;;;;;;;16.05;9.35;;;;;;;16.51;100.00;97934.31;1692993;85;21516;-75
2022/07/27 02:37:25;;;;;;;15.93;9.73;;;;;;;16.50;100.00;97929.93;1692902;85;21112;-75
2022/07/27 02:39:53;;;;;;;16.73;9.60;;;;;;;16.50;100.00;97929.41;1693052;85;21066;-74
2022/07/27 02:42:20;;;;;;;15.50;9.18;;;;;;;16.52;100.00;97918.24;1692944;85;21010;-75
2022/07/27 02:44:47;;;;;;;14.63;8.73;;;;;;;16.53;100.00;97918.50;1693050;85;21503;-75
2022/07/27 02:47:14;;;;;;;16.50;9.25;;;;;;;16.54;100.00;97917.95;1692944;85;21486;-75
2022/07/27 02:49:41;;;;;;;13.62;8.48;;;;;;;16.55;100.00;97913.61;1692972;85;21102;-75
2022/07/27 02:52:08;;;;;;;13.25;8.43;;;;;;;16.58;100.00;97911.72;1693242;85;21010;-75
2022/07/27 02:54:35;;;;;;;18.12;9.23;;;;;;;16.62;100.00;97905.20;1692905;85;21009;-75
2022/07/27 02:57:03;;;;;;;14.73;8.48;;;;;;;16.61;100.00;97908.48;1692889;85;21073;-75
2022/07/27 02:59:30;;;;;;;16.25;8.88;;;;;;;16.63;100.00;97895.94;1693043;85;21575;-75
2022/07/27 03:01:57;;;;;;;12.88;8.60;;;;;;;16.64;100.00;97889.38;1693179;85;21037;-75
2022/07/27 03:04:24;;;;;;;15.32;8.65;;;;;;;16.64;100.00;97886.13;1693015;85;21049;-75
2022/07/27 03:06:53;;;;;;;16.90;8.50;;;;;;;16.66;100.00;97877.66;1693250;85;21076;-75
2022/07/27 03:09:19;;;;;;;13.05;8.13;;;;;;;16.69;100.00;97877.14;1693191;85;21002;-75
2022/07/27 03:11:46;;;;;;;15.08;8.80;;;;;;;16.74;100.00;97876.36;1693451;85;20994;-75
2022/07/27 03:14:14;;;;;;;12.98;8.30;;;;;;;16.77;100.00;97870.36;1735363;80;21506;-75
2022/07/27 03:16:42;;;;;;;16.77;8.60;;;;;;;16.78;100.00;97866.55;1798511;79;20993;-74
2022/07/27 03:19:10;;;;;;;16.17;9.05;;;;;;;16.80;100.00;97855.67;1814571;79;21020;-74
2022/07/27 03:21:39;;;;;;;14.65;8.73;;;;;;;16.82;100.00;97858.95;1812037;79;21483;-75
2022/07/27 03:24:06;;;;;;;16.62;8.73;;;;;;;16.85;100.00;97854.88;1812215;79;21518;-74
2022/07/27 03:26:33;;;;;;;15.32;9.33;;;;;;;16.87;100.00;97849.45;1812083;79;21498;-74
2022/07/27 03:29:01;;;;;;;16.50;9.33;;;;;;;16.91;100.00;97847.53;1811780;78;21052;-75
2022/07/27 03:31:29;;;;;;;15.55;8.98;;;;;;;16.93;100.00;97847.56;1811803;79;21005;-74
2022/07/27 03:33:55;;;;;;;13.70;8.85;;;;;;;16.97;100.00;97845.13;1807062;79;21047;-74
2022/07/27 03:36:22;;;;;;;12.93;8.50;;;;;;;16.99;100.00;97841.58;1803497;79;20997;-74
2022/07/27 03:38:49;;;;;;;13.00;8.13;;;;;;;17.01;100.00;97841.58;1803402;79;21060;-75
2022/07/27 03:41:17;;;;;;;13.00;8.23;;;;;;;17.03;100.00;97838.58;1803433;79;21021;-74
2022/07/27 03:43:44;;;;;;;17.30;8.83;;;;;;;17.06;100.00;97840.78;1803164;79;20993;-74
2022/07/27 03:46:11;;;;;;;15.10;9.35;;;;;;;17.08;100.00;97839.42;1803291;79;21009;-74
2022/07/27 03:48:39;;;;;;;15.43;9.30;;;;;;;17.11;100.00;97839.45;1803740;79;21001;-75
2022/07/27 03:51:06;;;;;;;14.80;9.30;;;;;;;17.17;100.00;97845.74;1803389;79;21553;-74
2022/07/27 03:53:33;;;;;;;15.23;9.70;;;;;;;17.21;100.00;97836.76;1803242;79;21025;-75
2022/07/27 03:55:59;;;;;;;15.72;9.60;;;;;;;17.27;100.00;97831.58;1803653;79;21008;-74
2022/07/27 03:58:26;;;;;;;18.25;10.00;;;;;;;17.34;100.00;97825.05;1803650;79;20925;-74
2022/07/27 04:00:53;;;;;;;16.32;10.35;;;;;;;17.43;100.00;97824.80;1802753;79;20997;-74
2022/07/27 04:03:20;;;;;;;17.70;10.68;;;;;;;17.53;100.00;97819.88;1803719;79;20977;-74
2022/07/27 04:05:47;;;;;;;19.25;10.75;;;;;;;17.62;100.00;97815.55;1803318;79;21056;-75
2022/07/27 04:08:13;;;;;;;17.90;10.85;;;;;;;17.72;100.00;97808.70;1803663;79;20949;-75
2022/07/27 04:10:40;;;;;;;17.23;11.08;;;;;;;17.81;100.00;97806.25;1803621;79;21463;-75
2022/07/27 04:13:07;;;;;;;19.48;10.50;;;;;;;17.92;100.00;97805.21;1803437;79;21052;-75
2022/07/27 04:15:35;;;;;;;17.67;10.45;;;;;;;18.03;100.00;97793.72;1803662;79;21518;-74
2022/07/27 04:18:02;;;;;;;18.85;10.98;;;;;;;18.14;100.00;97785.77;1803298;79;21048;-74
2022/07/27 04:20:31;;;;;;;22.95;11.38;;;;;;;18.24;100.00;97785.48;1803218;79;21537;-74
2022/07/27 04:22:57;;;;;;;18.62;10.48;;;;;;;18.33;100.00;97778.38;1803644;79;20992;-74
2022/07/27 04:25:26;;;;;;;16.95;9.25;;;;;;;18.43;100.00;97774.78;1803432;79;21024;-75
2022/07/27 04:27:53;;;;;;;19.00;10.53;;;;;;;18.55;100.00;97771.19;1803399;79;21502;-75
2022/07/27 04:30:21;;;;;;;18.02;9.73;;;;;;;18.71;100.00;97770.03;1803264;79;21510;-74
2022/07/27 04:32:47;;;;;;;19.75;8.55;;;;;;;18.91;100.00;97760.96;1803163;79;21037;-75
2022/07/27 04:35:14;;;;;;;13.08;7.08;;;;;;;19.13;100.00;97757.02;1809534;79;20945;-74
2022/07/27 04:37:42;;;;;;;13.15;7.33;;;;;;;19.34;100.00;97748.93;1809342;79;21017;-74
2022/07/27 04:40:11;;;;;;;14.43;8.00;;;;;;;19.57;100.00;97750.70;1809021;79;21117;-75
2022/07/27 04:42:37;;;;;;;16.35;8.30;;;;;;;19.81;100.00;97752.72;1809694;79;20993;-74
2022/07/27 04:45:06;;;;;;;15.60;7.60;;;;;;;20.04;100.00;97762.96;1809122;79;21012;-74
2022/07/27 04:47:32;;;;;;;18.20;8.55;;;;;;;20.26;100.00;97777.55;1809527;79;21000;-74
2022/07/27 04:49:59;;;;;;;19.05;10.53;;;;;;;20.53;100.00;97802.25;1809200;79;21502;-75
2022/07/27 04:52:25;;;;;;;17.52;9.88;;;;;;;20.82;100.00;97820.09;1809499;79;20976;-75
2022/07/27 04:54:53;;;;;;;17.52;9.38;;;;;;;21.09;100.00;97835.16;1808821;79;21056;-74
2022/07/27 04:57:20;;;;;;;20.80;9.50;;;;;;;21.27;100.00;97865.16;1808807;79;21517;-74
2022/07/27 04:59:47;;;;;;;16.95;9.03;;;;;;;21.38;100.00;97891.96;1808166;79;21009;-75
2022/07/27 05:02:14;;;;;;;16.40;8.93;;;;;;;21.48;100.00;97920.73;1798024;79;21018;-74
2022/07/27 05:04:40;;;;;;;18.70;11.22;;;;;;;21.63;100.00;97960.95;1793372;79;21527;-73
2022/07/27 05:07:09;;;;;;;13.13;8.45;;;;;;;21.82;100.00;98010.51;1788455;79;21025;-74
2022/07/27 05:09:35;;;;;;;13.65;7.15;;;;;;;22.02;100.00;98052.64;1792297;79;20990;-74
2022/07/27 05:12:04;;;;;;;18.35;11.73;;;;;;;22.22;100.00;98106.59;1793483;79;21530;-74
2022/07/27 05:14:30;;;;;;;14.28;7.25;;;;;;;22.37;100.00;98157.37;1784923;79;21769;-73
2022/07/27 05:16:57;;;;;;;14.93;8.65;;;;;;;22.54;100.00;98207.28;1791163;79;20999;-74
2022/07/27 05:19:24;;;;;;;13.00;8.03;;;;;;;22.67;100.00;98268.27;1796234;79;20959;-74
2022/07/27 05:21:51;;;;;;;13.62;7.47;;;;;;;22.82;100.00;98307.20;1781179;79;21035;-75
2022/07/27 05:24:17;;;;;;;21.52;10.03;;;;;;;23.02;100.00;98329.55;1776025;81;21000;-76
2022/07/27 05:26:44;;;;;;;73.52;63.87;;;;;;;23.23;100.00;98350.29;1776106;81;20961;-76
2022/07/27 05:29:11;;;;;;;21.20;13.58;;;;;;;23.45;100.00;98381.98;1775879;81;21135;-74
2022/07/27 05:31:38;;;;;;;13.00;7.97;;;;;;;23.66;100.00;98412.31;1775650;81;21538;-74
2022/07/27 05:34:04;;;;;;;10.93;6.60;;;;;;;23.88;100.00;98442.67;1775836;81;21542;-74
2022/07/27 05:36:31;;;;;;;10.53;5.95;;;;;;;24.09;100.00;98476.90;1775739;81;21076;-74
2022/07/27 05:38:58;;;;;;;7.78;5.67;;;;;;;24.26;100.00;98498.72;1775993;81;21459;-75
2022/07/27 05:41:25;;;;;;;9.03;6.05;;;;;;;24.45;100.00;98529.65;1775078;81;21028;-74
2022/07/27 05:43:53;;;;;;;12.15;5.80;;;;;;;24.64;100.00;98546.25;1774762;81;21036;-74
2022/07/27 05:46:20;;;;;;;11.05;5.40;;;;;;;24.81;100.00;98574.74;1774754;81;21103;-75
2022/07/27 05:48:48;;;;;;;7.17;4.70;;;;;;;24.94;100.00;98600.79;1775146;81;21530;-76
2022/07/27 05:51:16;;;;;;;9.55;4.80;;;;;;;25.05;100.00;98638.77;1772676;81;21031;-74
2022/07/27 05:53:43;;;;;;;10.03;5.50;;;;;;;25.16;100.00;98665.13;1743507;82;21576;-75
2022/07/27 05:56:10;;;;;;;8.25;4.45;;;;;;;25.29;100.00;98701.75;1743390;82;21028;-75
2022/07/27 05:58:38;;;;;;;9.00;5.08;;;;;;;25.43;100.00;98724.48;1742910;82;21044;-75
2022/07/27 06:01:05;;;;;;;6.42;4.37;;;;;;;25.58;100.00;98743.62;1805155;79;21068;-76
2022/07/27 06:03:32;;;;;;;5.62;4.00;;;;;;;25.79;100.00;98754.36;1808678;79;21102;-77
2022/07/27 06:08:48;;;;;;;6.78;4.87;;;;;;;26.22;100.00;98806.23;1808634;79;21024;-76
2022/07/27 06:11:15;;;;;;;6.67;4.60;;;;;;;26.46;100.00;98821.31;1808380;79;21091;-78
2022/07/27 06:13:46;;;;;;;10.43;4.15;;;;;;;26.69;100.00;98843.08;1808135;79;21024;-78
2022/07/27 06:16:13;;;;;;;8.83;5.50;;;;;;;26.90;100.00;98877.35;1809420;79;21073;-82
2022/07/27 06:18:40;;;;;;;11.90;6.12;;;;;;;27.07;100.00;98890.59;1809934;79;21069;-83
2022/07/27 06:21:07;;;;;;;7.80;5.45;;;;;;;27.18;100.00;98910.63;1809570;79;21000;-80
2022/07/27 06:23:34;;;;;;;10.45;5.60;;;;;;;27.31;100.00;98932.61;1809250;79;21521;-82
2022/07/27 06:26:01;;;;;;;8.33;5.17;;;;;;;27.41;100.00;98959.59;1809842;79;21036;-77
2022/07/27 06:28:30;;;;;;;7.05;5.00;;;;;;;27.54;100.00;98955.72;1805258;79;21082;-80
2022/07/27 06:30:58;;;;;;;8.60;5.30;;;;;;;27.70;100.00;98979.82;1812464;79;20960;-77
2022/07/27 06:33:28;;;;;;;10.38;5.78;;;;;;;27.85;100.00;98993.35;1810442;79;20982;-77
2022/07/27 06:35:57;;;;;;;7.05;4.00;;;;;;;27.95;100.00;99014.58;1809240;79;21026;-80
2022/07/27 06:38:25;;;;;;;5.55;3.95;;;;;;;28.07;100.00;99014.05;1726105;82;21043;-79
2022/07/27 06:40:53;;;;;;;7.20;4.20;;;;;;;28.20;100.00;99028.45;1723508;82;21047;-77
2022/07/27 06:43:28;;;;;;;18.23;14.90;;;;;;;28.36;100.00;99047.80;1724826;82;21155;-78
2022/07/27 06:45:56;;;;;;;10.43;7.10;;;;;;;28.54;100.00;99054.39;1646826;86;21513;-81
2022/07/27 06:48:24;;;;;;;15.40;10.10;;;;;;;28.76;100.00;99071.64;1631360;88;21496;-76
2022/07/27 06:50:51;;;;;;;7.58;4.78;;;;;;;28.98;100.00;99084.72;1631383;88;21711;-76
2022/07/27 06:53:19;;;;;;;5.75;3.83;;;;;;;29.22;100.00;99129.54;1634858;86;21011;-80
2022/07/27 06:55:45;;;;;;;3.83;3.50;;;;;;;29.40;100.00;99280.81;1631848;88;21059;-77
2022/07/27 06:58:12;;;;;;;7.08;3.72;;;;;;;29.57;100.00;99351.17;1642011;86;21071;-79
2022/07/27 07:00:40;;;;;;;4.65;3.50;;;;;;;29.68;100.00;99388.77;1663816;86;21067;-79
2022/07/27 07:03:07;;;;;;;7.62;4.35;;;;;;;29.66;100.00;99394.39;1662882;86;21091;-81
2022/07/27 07:05:40;;;;;;;14.13;10.23;;;;;;;29.75;100.00;99386.98;1663347;86;21064;-78
2022/07/27 07:08:10;;;;;;;12.13;6.83;;;;;;;29.91;100.00;99391.04;1659124;86;21104;-77
2022/07/27 07:10:38;;;;;;;11.30;6.65;;;;;;;30.08;100.00;99391.75;1655780;86;21067;-77
2022/07/27 07:13:05;;;;;;;6.85;4.30;;;;;;;30.14;100.00;99408.33;1664063;86;21510;-76
2022/07/27 07:15:33;;;;;;;8.68;4.53;;;;;;;30.17;100.00;99414.66;1663829;86;21067;-75
2022/07/27 07:18:02;;;;;;;4.03;3.62;;;;;;;30.24;100.00;99413.65;1663834;86;21060;-74
2022/07/27 07:20:30;;;;;;;6.37;3.80;;;;;;;30.34;100.00;99417.61;1655835;86;21154;-77
2022/07/27 07:22:58;;;;;;;20.90;13.03;;;;;;;30.30;100.00;99429.13;1657653;85;21068;-75
2022/07/27 07:25:25;;;;;;;13.78;6.17;;;;;;;30.32;100.00;99421.27;1649981;86;20975;-77
2022/07/27 07:27:53;;;;;;;5.78;4.15;;;;;;;30.46;100.00;99422.03;1632059;88;21043;-78
2022/07/27 07:30:22;;;;;;;5.00;3.30;;;;;;;30.64;100.00;99441.08;1631359;88;21070;-79
2022/07/27 07:32:49;;;;;;;5.05;3.40;;;;;;;30.62;100.00;99450.93;1631297;86;21089;-80
2022/07/27 07:35:16;;;;;;;9.38;4.55;;;;;;;30.57;100.00;99442.11;1656311;84;21577;-79
2022/07/27 07:37:42;;;;;;;8.68;4.60;;;;;;;30.69;100.00;99444.32;1669308;86;21287;-78
2022/07/27 07:40:10;;;;;;;14.00;6.78;;;;;;;30.63;100.00;99463.72;1669910;86;21056;-78
2022/07/27 07:42:56;;;;;;;11.73;4.72;;;;;;;30.59;100.00;99453.77;1707009;82;21705;-78
2022/07/27 07:45:23;;;;;;;14.78;11.03;;;;;;;30.70;100.00;99452.92;1751149;82;21015;-77
2022/07/27 07:47:50;;;;;;;10.48;6.20;;;;;;;30.89;100.00;99451.31;1778981;79;21504;-80
2022/07/27 07:50:17;;;;;;;8.35;4.75;;;;;;;30.92;100.00;99450.70;1815638;79;21026;-78
2022/07/27 07:52:50;;;;;;;5.92;3.90;;;;;;;30.79;100.00;99453.82;1815120;79;21575;-79
2022/07/27 07:55:27;;;;;;;23.92;17.15;;;;;;;30.50;100.00;99462.66;1776970;79;21079;-80
2022/07/27 07:57:54;;;;;;;14.20;8.95;;;;;;;30.09;100.00;99456.68;1718611;83;21062;-78
2022/07/27 08:00:21;;;;;;;15.13;9.30;;;;;;;29.84;100.00;99458.92;1739008;82;21050;-80
2022/07/27 08:02:50;;;;;;;13.30;4.83;;;;;;;29.87;100.00;99447.70;1750275;82;21031;-79
2022/07/27 08:05:19;;;;;;;6.12;3.90;;;;;;;30.06;100.00;99444.18;1732518;82;20983;-82
2022/07/27 08:07:46;;;;;;;6.62;3.77;;;;;;;30.26;100.00;99452.64;1736915;83;21456;-79
2022/07/27 08:10:16;;;;;;;5.78;3.87;;;;;;;30.50;100.00;99454.30;1720530;83;21493;-77
2022/07/27 08:12:46;;;;;;;5.87;3.87;;;;;;;30.78;100.00;99457.73;1713752;83;21059;-79
2022/07/27 08:15:17;;;;;;;7.03;4.55;;;;;;;30.91;100.00;99463.55;1731193;83;21528;-77
2022/07/27 08:17:45;;;;;;;6.33;4.28;;;;;;;30.76;100.00;99476.77;1713908;83;21071;-76
2022/07/27 08:20:13;;;;;;;9.60;4.20;;;;;;;30.42;100.00;99475.42;1726464;83;21418;-78
2022/07/27 08:22:51;;;;;;;20.35;5.40;;;;;;;30.07;100.00;99478.48;1737668;81;21133;-78
2022/07/27 08:25:19;;;;;;;9.98;4.80;;;;;;;29.68;100.00;99479.89;1716273;83;20983;-75
2022/07/27 08:27:51;;;;;;;6.40;3.83;;;;;;;29.33;100.00;99469.18;1712432;84;21124;-77
2022/07/27 08:30:24;;;;;;;244.53;220.70;;;;;;;29.05;100.00;99470.28;1655808;87;21086;-77
2022/07/27 08:32:57;;;;;;;20.57;15.28;;;;;;;28.81;100.00;99465.73;1655910;85;21074;-81
2022/07/27 08:35:25;;;;;;;13.70;9.03;;;;;;;28.87;100.00;99455.33;1635095;87;21026;-81
2022/07/27 08:37:56;;;;;;;7.08;5.08;;;;;;;29.20;100.00;99446.91;1645832;85;21086;-81
2022/07/27 08:40:23;;;;;;;5.25;3.90;;;;;;;29.61;100.00;99446.88;1659172;86;21050;-84
2022/07/27 08:43:02;;;;;;;8.20;3.50;;;;;;;30.08;100.00;99455.86;1649409;86;21149;-82
2022/07/27 08:45:30;;;;;;;4.45;3.45;;;;;;;30.50;100.00;99459.05;1639650;86;21065;-79
2022/07/27 08:47:57;;;;;;;7.97;4.08;;;;;;;30.85;100.00;99469.27;1664386;83;21033;-78
2022/07/27 08:50:29;;;;;;;7.62;4.12;;;;;;;31.17;100.00;99475.68;1700252;83;21048;-79
2022/07/27 08:53:09;;;;;;;5.22;3.70;;;;;;;31.52;100.00;99466.05;1691303;83;21029;-77
2022/07/27 08:55:42;;;;;;;7.30;5.25;;;;;;;31.86;100.00;99472.84;1691474;84;21068;-78
2022/07/27 08:58:11;;;;;;;28.55;24.07;;;;;;;32.24;100.00;99471.39;1674454;84;21023;-76
2022/07/27 09:00:41;;;;;;;18.73;13.53;;;;;;;32.30;100.00;99487.69;1678017;84;21584;-79
2022/07/27 09:03:11;;;;;;;6.40;5.10;;;;;;;32.04;100.00;99498.02;1666199;86;21097;-81
2022/07/27 09:05:48;;;;;;;6.80;4.12;;;;;;;31.57;100.00;99504.17;1665667;86;21058;-78
2022/07/27 09:08:20;;;;;;;8.75;4.42;;;;;;;31.00;100.00;99495.14;1665167;86;21570;-83
2022/07/27 09:10:46;;;;;;;6.37;3.77;;;;;;;30.34;100.00;99494.30;1665426;86;21196;-80
2022/07/27 09:13:33;;;;;;;8.33;4.20;;;;;;;29.68;100.00;99494.62;1664892;86;21077;-81
2022/07/27 09:16:06;;;;;;;7.05;3.77;;;;;;;29.40;100.00;99483.27;1664777;86;21137;-80
2022/07/27 09:18:33;;;;;;;9.10;5.03;;;;;;;29.50;100.00;99480.24;1665094;86;21535;-81
2022/07/27 09:21:20;;;;;;;11.10;4.65;;;;;;;29.86;100.00;99466.97;1664939;85;21598;-76
2022/07/27 09:23:51;;;;;;;15.63;7.10;;;;;;;30.37;100.00;99458.00;1653152;86;21057;-78
2022/07/27 09:26:23;;;;;;;5.95;3.75;;;;;;;30.85;100.00;99477.64;1643883;86;21133;-76
2022/07/27 09:28:54;;;;;;;6.37;2.90;;;;;;;31.17;100.00;99489.64;1666350;86;21113;-77
2022/07/27 09:31:21;;;;;;;4.95;3.50;;;;;;;31.48;100.00;99490.73;1665166;86;21038;-76
2022/07/27 09:33:54;;;;;;;3.95;3.42;;;;;;;31.75;100.00;99494.70;1659648;86;21573;-79
2022/07/27 09:36:24;;;;;;;4.50;3.55;;;;;;;31.98;100.00;99488.39;1581442;90;22248;-79
2022/07/27 09:39:05;;;;;;;14.60;8.13;;;;;;;32.21;100.00;99498.61;1582902;91;21114;-77
2022/07/27 09:41:52;;;;;;;6.15;4.20;;;;;;;32.45;100.00;99501.73;1582882;90;21073;-77
2022/07/27 09:44:36;;;;;;;10.93;4.67;;;;;;;32.75;100.00;99489.28;1588211;90;21070;-79
2022/07/27 09:47:26;;;;;;;8.30;4.75;;;;;;;33.13;100.00;99498.87;1582214;91;21065;-78
2022/07/27 09:50:12;;;;;;;6.15;4.30;;;;;;;33.36;100.00;99507.88;1581455;91;21156;-78
2022/07/27 09:52:39;;;;;;;8.10;3.40;;;;;;;33.53;100.00;99495.17;1584265;90;21075;-79
2022/07/27 09:55:07;;;;;;;3.47;3.15;;;;;;;33.71;100.00;99511.92;1601669;90;21031;-80
2022/07/27 09:57:55;;;;;;;12.73;10.13;;;;;;;33.76;100.00;99520.95;1601942;90;21118;-81
2022/07/27 10:00:24;;;;;;;33.33;27.37;;;;;;;33.78;100.00;99511.63;1589768;90;21049;-82
2022/07/27 10:02:52;;;;;;;12.23;8.48;;;;;;;33.92;100.00;99509.16;1597091;89;21006;-81
2022/07/27 10:05:21;;;;;;;5.35;3.70;;;;;;;34.12;100.00;99506.11;1597196;90;21161;-79
2022/07/27 10:07:49;;;;;;;4.55;3.30;;;;;;;34.23;99.14;99515.80;1595658;89;21113;-79
2022/07/27 10:10:15;;;;;;;14.65;10.35;;;;;;;34.10;100.00;99516.85;1596090;90;21117;-78
2022/07/27 10:12:43;;;;;;;17.90;13.13;;;;;;;33.74;97.70;99526.09;1596832;89;21587;-79
2022/07/27 10:15:13;;;;;;;52.43;47.08;;;;;;;33.16;97.75;99524.27;1610311;86;21039;-77
2022/07/27 10:17:42;;;;;;;13.65;9.08;;;;;;;32.68;100.00;99519.76;1660346;86;21099;-80
2022/07/27 10:20:11;;;;;;;6.12;4.33;;;;;;;32.39;100.00;99514.81;1660640;85;21510;-77
2022/07/27 10:22:55;;;;;;;10.95;6.17;;;;;;;31.92;99.95;99522.42;1660240;86;21578;-76
2022/07/27 10:25:23;;;;;;;11.05;4.78;;;;;;;31.44;100.00;99517.09;1660056;86;21134;-76
2022/07/27 10:28:15;;;;;;;11.88;4.78;;;;;;;31.43;100.00;99515.46;1660241;86;21693;-79
2022/07/27 10:30:41;;;;;;;9.28;4.50;;;;;;;31.56;100.00;99515.93;1660259;86;21689;-78
2022/07/27 10:33:15;;;;;;;5.75;4.20;;;;;;;31.79;100.00;99514.43;1679410;83;21628;-77
2022/07/27 10:35:43;;;;;;;6.08;4.40;;;;;;;31.94;100.00;99515.38;1763571;81;21668;-76
2022/07/27 10:38:14;;;;;;;5.37;3.00;;;;;;;32.25;100.00;99513.61;1735980;82;21567;-76
2022/07/27 10:40:43;;;;;;;2.98;2.77;;;;;;;32.62;100.00;99515.51;1757074;79;21510;-76
2022/07/27 10:43:20;;;;;;;3.98;3.10;;;;;;;32.95;100.00;99517.14;1770645;81;21028;-80
2022/07/27 10:45:49;;;;;;;3.60;3.00;;;;;;;33.24;100.00;99517.82;1770723;81;21056;-81
2022/07/27 10:48:40;;;;;;;14.65;6.90;;;;;;;33.46;99.17;99504.70;1770422;81;21052;-79
2022/07/27 10:51:09;;;;;;;6.72;4.42;;;;;;;33.71;99.71;99511.34;1770394;81;21530;-78
2022/07/27 10:53:38;;;;;;;8.20;4.20;;;;;;;34.02;96.07;99502.55;1770785;81;21064;-79
2022/07/27 10:56:08;;;;;;;8.05;4.33;;;;;;;34.19;86.90;99513.42;1770759;81;21052;-78
2022/07/27 10:58:41;;;;;;;4.85;3.52;;;;;;;34.19;88.97;99510.62;1770644;81;21482;-79
2022/07/27 11:01:11;;;;;;;7.10;3.47;;;;;;;34.28;94.37;99504.38;1803082;79;20997;-78
2022/07/27 11:03:38;;;;;;;6.00;3.70;;;;;;;34.51;94.59;99502.02;1802899;79;21563;-79
2022/07/27 11:06:11;;;;;;;18.70;14.58;;;;;;;34.65;91.92;99505.09;1800830;79;21032;-77
2022/07/27 11:08:42;;;;;;;7.50;5.08;;;;;;;34.74;93.98;99504.44;1770376;81;21555;-77
2022/07/27 11:11:11;;;;;;;12.37;6.92;;;;;;;34.82;89.55;99502.12;1770579;81;21427;-79
2022/07/27 11:13:40;;;;;;;11.78;4.70;;;;;;;34.78;88.49;99507.63;1769980;81;21049;-77
2022/07/27 11:16:12;;;;;;;5.55;4.28;;;;;;;34.82;92.75;99504.94;1769951;81;21566;-78
2022/07/27 11:18:41;;;;;;;4.28;3.20;;;;;;;34.86;90.64;99501.66;1771028;81;21009;-80
2022/07/27 11:21:27;;;;;;;4.10;3.30;;;;;;;34.89;92.50;99497.36;1770068;81;21025;-77
2022/07/27 11:23:58;;;;;;;7.03;3.00;;;;;;;35.00;91.10;99506.96;1769452;81;21048;-78
2022/07/27 11:26:28;;;;;;;6.65;4.03;;;;;;;34.99;83.13;99508.15;1769902;81;21040;-78
2022/07/27 11:28:55;;;;;;;13.05;4.20;;;;;;;34.86;87.88;99510.68;1770742;81;21009;-80
2022/07/27 11:31:23;;;;;;;4.33;3.25;;;;;;;34.60;83.75;99513.97;1769128;81;21056;-77